createdAt,value
2019-01-20T00:01:29.004Z,0.58
2019-01-20T00:06:32.305Z,0.53
2019-01-20T00:11:35.999Z,0.18
2019-01-20T00:16:39.203Z,-0.43
2019-01-20T00:21:41.621Z,-0.03
2019-01-20T00:26:44.598Z,-0.31
2019-01-20T00:31:47.381Z,-0.27
2019-01-20T00:36:50.318Z,-0.59
2019-01-20T00:41:53.283Z,-0.28
2019-01-20T00:46:56.318Z,-0.29
2019-01-20T00:51:59.524Z,-0.25
2019-01-20T00:57:02.331Z,-0.13
2019-01-20T01:02:05.506Z,-0.14
2019-01-20T01:07:07.961Z,-0.10
2019-01-20T01:12:15.634Z,0.17
2019-01-20T01:17:18.671Z,0.21
2019-01-20T01:22:21.447Z,0.27
2019-01-20T01:27:24.314Z,0.30
2019-01-20T01:32:27.367Z,0.01
2019-01-20T01:37:30.147Z,-0.21
2019-01-20T01:42:33.180Z,-0.05
2019-01-20T01:47:35.647Z,0.06
2019-01-20T01:52:38.330Z,-0.03
2019-01-20T01:57:41.556Z,-0.22
2019-01-20T02:02:43.762Z,-0.14
2019-01-20T02:07:46.645Z,0.15
2019-01-20T02:12:50.974Z,0.25
2019-01-20T02:17:53.562Z,0.33
2019-01-20T02:22:56.784Z,0.27
2019-01-20T02:28:00.036Z,0.08
2019-01-20T02:33:03.018Z,0.00
2019-01-20T02:38:05.716Z,0.23
2019-01-20T02:43:08.718Z,0.27
2019-01-20T02:48:11.692Z,0.27
2019-01-20T02:53:14.379Z,0.22
2019-01-20T02:58:17.185Z,0.27
2019-01-20T03:03:19.601Z,0.26
2019-01-20T03:08:21.783Z,0.21
2019-01-20T03:13:24.754Z,0.23
2019-01-20T03:18:27.385Z,0.26
2019-01-20T03:23:29.778Z,0.34
2019-01-20T03:28:32.689Z,0.41
2019-01-20T03:33:34.977Z,0.38
2019-01-20T03:38:37.105Z,0.38
2019-01-20T03:43:39.238Z,0.38
2019-01-20T03:48:41.899Z,0.40
2019-01-20T03:53:44.336Z,0.45
2019-01-20T03:58:47.096Z,0.58
2019-01-20T04:03:50.057Z,0.52
2019-01-20T04:08:52.778Z,0.52
2019-01-20T04:13:55.325Z,0.53
2019-01-20T04:18:57.805Z,0.61
2019-01-20T04:23:59.950Z,0.64
2019-01-20T04:29:02.673Z,0.60
2019-01-20T04:34:05.828Z,0.26
2019-01-20T04:39:08.698Z,0.52
2019-01-20T04:44:11.340Z,0.57
2019-01-20T04:49:14.202Z,0.54
2019-01-20T04:54:16.369Z,0.58
2019-01-20T04:59:18.999Z,0.61
2019-01-20T05:04:21.065Z,0.63
2019-01-20T05:09:23.671Z,0.66
2019-01-20T05:14:26.342Z,0.58
2019-01-20T05:19:29.286Z,0.49
2019-01-20T05:24:31.943Z,0.61
2019-01-20T05:29:34.677Z,0.61
2019-01-20T05:34:36.759Z,0.46
2019-01-20T05:39:39.548Z,-0.03
2019-01-20T05:44:42.266Z,0.25
2019-01-20T05:49:44.750Z,0.29
2019-01-20T05:54:47.398Z,0.49
2019-01-20T05:59:49.640Z,0.22
2019-01-20T06:04:51.366Z,-0.04
2019-01-20T06:09:53.797Z,0.29
2019-01-20T06:14:56.200Z,-0.13
2019-01-20T06:19:58.900Z,-0.17
2019-01-20T06:25:01.298Z,0.25
2019-01-20T06:30:07.208Z,0.40
2019-01-20T06:35:10.103Z,0.28
2019-01-20T06:40:12.977Z,0.45
2019-01-20T06:45:15.527Z,0.46
2019-01-20T06:50:19.304Z,0.53
2019-01-20T06:55:21.891Z,0.58
2019-01-20T07:00:25.437Z,0.63
2019-01-20T07:05:28.491Z,0.59
2019-01-20T07:10:31.216Z,0.60
2019-01-20T07:15:33.795Z,0.56
2019-01-20T07:20:36.380Z,0.47
2019-01-20T07:25:38.766Z,0.61
2019-01-20T07:30:41.255Z,1.05
2019-01-20T07:35:44.022Z,1.27
2019-01-20T07:40:46.224Z,1.44
2019-01-20T07:45:48.347Z,1.43
2019-01-20T07:50:50.935Z,1.13
2019-01-20T07:55:53.734Z,0.89
2019-01-20T08:00:55.470Z,0.68
2019-01-20T08:05:58.381Z,0.66
2019-01-20T08:11:01.312Z,0.26
2019-01-20T08:16:04.189Z,0.38
2019-01-20T08:21:06.828Z,-0.12
2019-01-20T08:26:09.904Z,-0.21
2019-01-20T08:31:12.925Z,0.22
2019-01-20T08:36:15.955Z,0.33
2019-01-20T08:41:18.773Z,-0.08
2019-01-20T08:46:34.963Z,0.31
2019-01-20T08:51:38.783Z,0.15
2019-01-20T08:56:40.860Z,0.48
2019-01-20T09:01:43.665Z,0.99
2019-01-20T09:06:46.340Z,1.00
2019-01-20T09:11:49.060Z,1.18
2019-01-20T09:16:52.235Z,1.15
2019-01-20T09:21:54.856Z,0.88
2019-01-20T09:26:57.054Z,0.69
2019-01-20T09:31:59.657Z,1.02
2019-01-20T09:37:02.819Z,1.45
2019-01-20T09:42:05.742Z,1.62
2019-01-20T09:47:08.355Z,1.52
2019-01-20T09:52:11.419Z,0.89
2019-01-20T09:57:13.859Z,1.00
2019-01-20T10:02:16.612Z,1.04
2019-01-20T10:07:18.753Z,1.59
2019-01-20T10:12:21.830Z,1.34
2019-01-20T10:17:24.845Z,1.53
2019-01-20T10:22:28.299Z,1.43
2019-01-20T10:27:30.979Z,1.78
2019-01-20T10:32:34.201Z,2.10
2019-01-20T10:37:38.077Z,2.03
2019-01-20T10:42:40.582Z,1.98
2019-01-20T10:47:42.979Z,2.04
2019-01-20T10:52:47.521Z,1.89
2019-01-20T10:57:50.839Z,2.12
2019-01-20T11:02:54.730Z,2.24
2019-01-20T11:07:57.872Z,2.53
2019-01-20T11:13:00.772Z,2.76
2019-01-20T11:18:04.406Z,3.14
2019-01-20T11:23:07.805Z,3.75
2019-01-20T11:28:10.172Z,4.04
2019-01-20T11:33:12.822Z,4.17
2019-01-20T11:38:15.394Z,4.27
2019-01-20T11:43:17.475Z,4.55
2019-01-20T11:48:20.066Z,5.57
2019-01-20T11:53:23.216Z,5.87
2019-01-20T11:58:25.443Z,6.62
2019-01-20T12:03:28.369Z,5.91
2019-01-20T12:08:31.597Z,6.29
2019-01-20T12:13:34.507Z,6.75
2019-01-20T12:18:37.270Z,7.11
2019-01-20T12:23:39.496Z,6.73
2019-01-20T12:28:42.618Z,7.32
2019-01-20T12:33:45.175Z,8.33
2019-01-20T12:38:48.382Z,8.20
2019-01-20T12:43:50.592Z,8.49
2019-01-20T12:48:53.064Z,8.48
2019-01-20T12:53:55.756Z,7.16
2019-01-20T12:58:58.908Z,8.53
2019-01-20T13:04:00.939Z,8.46
2019-01-20T13:09:07.353Z,7.15
2019-01-20T13:14:09.665Z,7.35
2019-01-20T13:19:12.330Z,8.25
2019-01-20T13:24:14.400Z,9.11
2019-01-20T13:29:17.177Z,9.38
2019-01-20T13:34:21.941Z,9.52
2019-01-20T13:39:24.344Z,8.76
2019-01-20T13:44:27.490Z,7.92
2019-01-20T13:49:30.301Z,8.43
2019-01-20T13:54:32.865Z,8.00
2019-01-20T13:59:36.132Z,6.97
2019-01-20T14:04:38.905Z,6.03
2019-01-20T14:09:41.237Z,6.27
2019-01-20T14:14:44.027Z,6.90
2019-01-20T14:19:46.560Z,5.48
2019-01-20T14:24:49.520Z,5.33
2019-01-20T14:29:52.547Z,5.14
2019-01-20T14:34:55.349Z,3.88
2019-01-20T14:39:58.343Z,4.59
2019-01-20T14:45:01.257Z,5.21
2019-01-20T14:50:06.204Z,5.03
2019-01-20T14:55:09.135Z,4.16
2019-01-20T15:00:20.475Z,4.45
2019-01-20T15:05:23.413Z,4.62
2019-01-20T15:10:26.432Z,4.08
2019-01-20T15:15:31.972Z,3.96
2019-01-20T15:20:34.853Z,4.09
2019-01-20T15:25:37.814Z,4.58
2019-01-20T15:30:41.069Z,3.85
2019-01-20T15:35:43.910Z,3.41
2019-01-20T15:40:46.605Z,3.65
2019-01-20T15:45:49.392Z,2.57
2019-01-20T15:50:52.013Z,2.93
2019-01-20T15:55:54.720Z,2.72
2019-01-20T16:00:57.699Z,2.47
2019-01-20T16:06:00.603Z,1.99
2019-01-20T16:11:03.844Z,2.28
2019-01-20T16:16:07.042Z,2.35
2019-01-20T16:21:10.024Z,1.88
2019-01-20T16:26:14.754Z,1.91
2019-01-20T16:31:17.579Z,1.30
2019-01-20T16:36:20.626Z,1.54
2019-01-20T16:41:23.832Z,1.63
2019-01-20T16:46:26.504Z,1.52
2019-01-20T16:51:29.393Z,1.66
2019-01-20T16:56:32.557Z,1.66
2019-01-20T17:01:34.465Z,1.56
2019-01-20T17:06:37.556Z,1.33
2019-01-20T17:11:41.136Z,1.37
2019-01-20T17:16:45.334Z,1.08
2019-01-20T17:21:48.576Z,0.19
2019-01-20T17:26:51.947Z,0.33
2019-01-20T17:31:54.597Z,0.47
2019-01-20T17:36:57.593Z,0.79
2019-01-20T17:42:00.910Z,0.92
2019-01-20T17:47:04.211Z,0.94
2019-01-20T17:52:07.347Z,0.88
2019-01-20T17:57:10.249Z,0.59
2019-01-20T18:02:14.343Z,0.07
2019-01-20T18:07:18.502Z,0.09
2019-01-20T18:12:21.205Z,-0.37
2019-01-20T18:17:27.634Z,-0.03
2019-01-20T18:22:33.220Z,0.04
2019-01-20T18:27:38.512Z,-0.33
2019-01-20T18:32:43.648Z,-0.80
2019-01-20T18:37:47.902Z,-0.96
2019-01-20T18:42:52.913Z,-1.32
2019-01-20T18:47:57.870Z,-0.54
2019-01-20T18:53:01.846Z,-1.08
2019-01-20T18:58:07.583Z,-1.46
2019-01-20T19:03:11.820Z,-1.45
2019-01-20T19:08:16.508Z,-0.96
2019-01-20T19:13:20.623Z,-1.44
2019-01-20T19:18:26.269Z,-1.67
2019-01-20T19:23:33.413Z,-1.18
2019-01-20T19:28:37.637Z,-1.10
2019-01-20T19:33:44.286Z,-1.15
2019-01-20T19:38:50.353Z,-1.64
2019-01-20T19:43:57.323Z,-1.06
2019-01-20T19:49:04.014Z,-1.55
2019-01-20T19:54:09.695Z,-1.73
2019-01-20T19:59:16.509Z,-1.62
2019-01-20T20:04:22.275Z,-1.77
2019-01-20T20:09:29.996Z,-1.54
2019-01-20T20:14:35.337Z,-1.38
2019-01-20T20:19:41.966Z,-1.08
2019-01-20T20:24:49.942Z,-1.43
2019-01-20T20:29:55.137Z,-0.91
2019-01-20T20:35:02.200Z,-0.82
2019-01-20T20:40:11.179Z,-1.76
2019-01-20T20:45:21.254Z,-2.02
2019-01-20T20:50:27.781Z,-2.22
2019-01-20T20:55:34.212Z,-2.26
2019-01-20T21:00:42.099Z,-1.77
2019-01-20T21:05:49.083Z,-1.72
2019-01-20T21:10:55.532Z,-1.91
2019-01-20T21:16:02.322Z,-1.37
2019-01-20T21:21:08.183Z,-1.98
2019-01-20T21:26:14.738Z,-1.79
2019-01-20T21:31:18.035Z,-1.98
2019-01-20T21:36:21.188Z,-1.93
2019-01-20T21:41:23.922Z,-1.73
2019-01-20T21:46:26.972Z,-1.60
2019-01-20T21:51:30.035Z,-1.77
2019-01-20T21:56:33.320Z,-1.98
2019-01-20T22:01:36.105Z,-1.92
2019-01-20T22:06:38.154Z,-1.79
2019-01-20T22:11:40.963Z,-2.03
2019-01-20T22:16:43.491Z,-2.18
2019-01-20T22:21:46.245Z,-1.69
2019-01-20T22:26:49.391Z,-1.99
2019-01-20T22:31:52.097Z,-2.29
2019-01-20T22:36:54.979Z,-2.34
2019-01-20T22:41:57.996Z,-1.54
2019-01-20T22:47:01.184Z,-1.81
2019-01-20T22:52:04.015Z,-2.31
2019-01-20T22:57:06.415Z,-2.38
2019-01-20T23:02:09.127Z,-2.33
2019-01-20T23:07:11.980Z,-2.51
2019-01-20T23:12:14.792Z,-1.97
2019-01-20T23:17:17.295Z,-1.66
2019-01-20T23:22:20.406Z,-2.62
2019-01-20T23:27:23.511Z,-2.92
2019-01-20T23:32:26.645Z,-3.47
2019-01-20T23:37:29.456Z,-3.12
2019-01-20T23:42:32.334Z,-3.45
2019-01-20T23:47:35.080Z,-3.26
2019-01-20T23:52:37.640Z,-3.19
2019-01-20T23:57:40.506Z,-2.79
